sensor_id;sensor_type;location;lat;lon;timestamp;pressure;altitude;pressure_sealevel;temperature;humidity
38786;BME280;24535;45.508;12.252;2023-12-20T00:00:38;101673.28;;;11.49;52.79
38786;BME280;24535;45.508;12.252;2023-12-20T00:03:04;101660.25;;;11.46;52.77
38786;BME280;24535;45.508;12.252;2023-12-20T00:05:30;101654.25;;;11.44;52.75
38786;BME280;24535;45.508;12.252;2023-12-20T00:07:57;101655.94;;;11.45;52.72
38786;BME280;24535;45.508;12.252;2023-12-20T00:10:23;101651.59;;;11.44;52.47
38786;BME280;24535;45.508;12.252;2023-12-20T00:12:48;101647.28;;;11.43;52.89
38786;BME280;24535;45.508;12.252;2023-12-20T00:15:14;101642.91;;;11.42;52.24
38786;BME280;24535;45.508;12.252;2023-12-20T00:17:39;101644.78;;;11.40;52.24
38786;BME280;24535;45.508;12.252;2023-12-20T00:20:07;101638.41;;;11.44;52.44
38786;BME280;24535;45.508;12.252;2023-12-20T00:22:33;101632.53;;;11.39;52.24
38786;BME280;24535;45.508;12.252;2023-12-20T00:24:58;101635.19;;;11.39;52.86
38786;BME280;24535;45.508;12.252;2023-12-20T00:27:23;101625.47;;;11.39;52.71
38786;BME280;24535;45.508;12.252;2023-12-20T00:29:49;101617.63;;;11.38;52.86
38786;BME280;24535;45.508;12.252;2023-12-20T00:32:16;101616.88;;;11.36;52.86
38786;BME280;24535;45.508;12.252;2023-12-20T00:34:42;101612.56;;;11.35;52.32
38786;BME280;24535;45.508;12.252;2023-12-20T00:37:07;101613.41;;;11.35;53.16
38786;BME280;24535;45.508;12.252;2023-12-20T00:39:33;101618.75;;;11.34;52.20
38786;BME280;24535;45.508;12.252;2023-12-20T00:41:58;101621.31;;;11.35;52.62
38786;BME280;24535;45.508;12.252;2023-12-20T00:44:24;101609.13;;;11.33;52.55
38786;BME280;24535;45.508;12.252;2023-12-20T00:46:49;101614.41;;;11.33;52.38
38786;BME280;24535;45.508;12.252;2023-12-20T00:49:14;101602.16;;;11.32;52.53
38786;BME280;24535;45.508;12.252;2023-12-20T00:51:40;101596.78;;;11.33;52.59
38786;BME280;24535;45.508;12.252;2023-12-20T00:54:05;101608.19;;;11.34;52.20
38786;BME280;24535;45.508;12.252;2023-12-20T00:56:31;101609.13;;;11.33;52.26
38786;BME280;24535;45.508;12.252;2023-12-20T00:58:56;101605.66;;;11.32;52.97
38786;BME280;24535;45.508;12.252;2023-12-20T01:01:21;101609.06;;;11.34;52.53
38786;BME280;24535;45.508;12.252;2023-12-20T01:03:50;101604.69;;;11.33;52.54
38786;BME280;24535;45.508;12.252;2023-12-20T01:06:16;101604.69;;;11.33;52.44
38786;BME280;24535;45.508;12.252;2023-12-20T01:08:42;101601.22;;;11.33;52.23
38786;BME280;24535;45.508;12.252;2023-12-20T01:11:07;101605.56;;;11.34;52.44
38786;BME280;24535;45.508;12.252;2023-12-20T01:13:33;101591.63;;;11.32;51.84
38786;BME280;24535;45.508;12.252;2023-12-20T01:15:58;101585.50;;;11.31;51.91
38786;BME280;24535;45.508;12.252;2023-12-20T01:18:24;101586.44;;;11.30;52.64
38786;BME280;24535;45.508;12.252;2023-12-20T01:20:49;101581.22;;;11.29;51.98
38786;BME280;24535;45.508;12.252;2023-12-20T01:23:15;101580.38;;;11.28;52.60
38786;BME280;24535;45.508;12.252;2023-12-20T01:25:40;101565.56;;;11.26;52.06
38786;BME280;24535;45.508;12.252;2023-12-20T01:28:05;101578.69;;;11.27;52.50
38786;BME280;24535;45.508;12.252;2023-12-20T01:30:31;101570.00;;;11.25;52.69
38786;BME280;24535;45.508;12.252;2023-12-20T01:32:56;101573.47;;;11.26;52.10
38786;BME280;24535;45.508;12.252;2023-12-20T01:35:22;101577.84;;;11.27;52.30
38786;BME280;24535;45.508;12.252;2023-12-20T01:37:47;101569.25;;;11.23;52.22
38786;BME280;24535;45.508;12.252;2023-12-20T01:40:13;101572.63;;;11.25;52.53
38786;BME280;24535;45.508;12.252;2023-12-20T01:42:38;101572.63;;;11.25;51.88
38786;BME280;24535;45.508;12.252;2023-12-20T01:45:04;101571.72;;;11.26;52.07
38786;BME280;24535;45.508;12.252;2023-12-20T01:47:30;101556.06;;;11.23;52.44
38786;BME280;24535;45.508;12.252;2023-12-20T01:49:55;101553.31;;;11.25;51.87
38786;BME280;24535;45.508;12.252;2023-12-20T01:52:22;101554.25;;;11.24;51.97
38786;BME280;24535;45.508;12.252;2023-12-20T01:54:48;101540.31;;;11.22;52.07
38786;BME280;24535;45.508;12.252;2023-12-20T01:57:14;101545.56;;;11.22;51.79
38786;BME280;24535;45.508;12.252;2023-12-20T01:59:40;101549.94;;;11.23;51.94
38786;BME280;24535;45.508;12.252;2023-12-20T02:02:07;101540.41;;;11.20;51.76
38786;BME280;24535;45.508;12.252;2023-12-20T02:04:33;101545.69;;;11.20;51.96
38786;BME280;24535;45.508;12.252;2023-12-20T02:06:59;101534.38;;;11.18;51.68
38786;BME280;24535;45.508;12.252;2023-12-20T02:09:24;101532.59;;;11.19;52.00
38786;BME280;24535;45.508;12.252;2023-12-20T02:11:50;101540.50;;;11.19;51.45
38786;BME280;24535;45.508;12.252;2023-12-20T02:14:15;101535.28;;;11.17;52.13
38786;BME280;24535;45.508;12.252;2023-12-20T02:16:41;101532.66;;;11.17;52.23
38786;BME280;24535;45.508;12.252;2023-12-20T02:19:14;101527.38;;;11.17;52.10
38786;BME280;24535;45.508;12.252;2023-12-20T02:21:40;101530.88;;;11.18;52.04
38786;BME280;24535;45.508;12.252;2023-12-20T02:24:06;101521.19;;;11.18;52.04
38786;BME280;24535;45.508;12.252;2023-12-20T02:26:32;101516.84;;;11.17;51.92
38786;BME280;24535;45.508;12.252;2023-12-20T02:28:59;101516.94;;;11.16;52.01
38786;BME280;24535;45.508;12.252;2023-12-20T02:31:24;101508.06;;;11.17;51.79
38786;BME280;24535;45.508;12.252;2023-12-20T02:33:50;101508.84;;;11.19;51.96
38786;BME280;24535;45.508;12.252;2023-12-20T02:36:15;101499.16;;;11.19;51.57
38786;BME280;24535;45.508;12.252;2023-12-20T02:38:41;101494.81;;;11.18;51.46
38786;BME280;24535;45.508;12.252;2023-12-20T02:41:06;101497.47;;;11.18;51.84
38786;BME280;24535;45.508;12.252;2023-12-20T02:43:32;101489.53;;;11.18;51.88
38786;BME280;24535;45.508;12.252;2023-12-20T02:45:58;101491.31;;;11.18;51.68
38786;BME280;24535;45.508;12.252;2023-12-20T02:48:23;101476.44;;;11.17;51.59
38786;BME280;24535;45.508;12.252;2023-12-20T02:50:48;101482.56;;;11.17;51.89
38786;BME280;24535;45.508;12.252;2023-12-20T02:53:14;101473.78;;;11.17;52.01
38786;BME280;24535;45.508;12.252;2023-12-20T02:55:40;101470.31;;;11.16;51.38
38786;BME280;24535;45.508;12.252;2023-12-20T02:58:05;101473.03;;;11.14;51.66
38786;BME280;24535;45.508;12.252;2023-12-20T03:00:31;101471.31;;;11.13;51.46
38786;BME280;24535;45.508;12.252;2023-12-20T03:02:56;101469.47;;;11.16;51.46
38786;BME280;24535;45.508;12.252;2023-12-20T03:05:21;101471.31;;;11.13;51.15
38786;BME280;24535;45.508;12.252;2023-12-20T03:07:47;101465.22;;;11.13;51.57
38786;BME280;24535;45.508;12.252;2023-12-20T03:10:12;101463.50;;;11.12;51.57
38786;BME280;24535;45.508;12.252;2023-12-20T03:12:38;101462.66;;;11.11;51.79
38786;BME280;24535;45.508;12.252;2023-12-20T03:15:03;101465.38;;;11.10;51.47
38786;BME280;24535;45.508;12.252;2023-12-20T03:17:29;101461.81;;;11.11;51.48
38786;BME280;24535;45.508;12.252;2023-12-20T03:19:54;101464.47;;;11.11;51.59
38786;BME280;24535;45.508;12.252;2023-12-20T03:22:20;101464.47;;;11.11;51.13
38786;BME280;24535;45.508;12.252;2023-12-20T03:24:45;101462.66;;;11.11;51.06
38786;BME280;24535;45.508;12.252;2023-12-20T03:27:14;101458.34;;;11.10;51.61
38786;BME280;24535;45.508;12.252;2023-12-20T03:29:39;101456.63;;;11.09;51.22
38786;BME280;24535;45.508;12.252;2023-12-20T03:32:05;101457.47;;;11.10;51.15
38786;BME280;24535;45.508;12.252;2023-12-20T03:34:30;101450.50;;;11.09;51.44
38786;BME280;24535;45.508;12.252;2023-12-20T03:36:56;101450.59;;;11.07;51.64
38786;BME280;24535;45.508;12.252;2023-12-20T03:39:21;101453.31;;;11.06;51.20
38786;BME280;24535;45.508;12.252;2023-12-20T03:41:47;101440.22;;;11.04;51.50
38786;BME280;24535;45.508;12.252;2023-12-20T03:44:12;101438.59;;;11.02;51.70
38786;BME280;24535;45.508;12.252;2023-12-20T03:46:38;101435.13;;;11.01;50.97
38786;BME280;24535;45.508;12.252;2023-12-20T03:49:03;101427.13;;;11.03;50.79
38786;BME280;24535;45.508;12.252;2023-12-20T03:51:28;101433.25;;;11.03;51.22
38786;BME280;24535;45.508;12.252;2023-12-20T03:53:54;101422.78;;;11.02;50.84
38786;BME280;24535;45.508;12.252;2023-12-20T03:56:22;101408.06;;;10.98;51.65
38786;BME280;24535;45.508;12.252;2023-12-20T03:58:49;101416.66;;;11.01;51.57
38786;BME280;24535;45.508;12.252;2023-12-20T04:01:14;101405.38;;;10.99;51.38
38786;BME280;24535;45.508;12.252;2023-12-20T04:03:40;101408.00;;;10.99;51.17
38786;BME280;24535;45.508;12.252;2023-12-20T04:06:05;101400.16;;;10.98;51.31
38786;BME280;24535;45.508;12.252;2023-12-20T04:08:31;101403.69;;;10.98;51.13
38786;BME280;24535;45.508;12.252;2023-12-20T04:10:57;101397.63;;;10.96;51.21
38786;BME280;24535;45.508;12.252;2023-12-20T04:13:22;101397.63;;;10.96;50.89
38786;BME280;24535;45.508;12.252;2023-12-20T04:15:47;101405.44;;;10.98;50.90
38786;BME280;24535;45.508;12.252;2023-12-20T04:18:15;101400.28;;;10.96;51.22
38786;BME280;24535;45.508;12.252;2023-12-20T04:20:40;101399.44;;;10.96;50.93
38786;BME280;24535;45.508;12.252;2023-12-20T04:23:06;101397.63;;;10.96;51.44
38786;BME280;24535;45.508;12.252;2023-12-20T04:25:31;101401.97;;;10.97;51.27
38786;BME280;24535;45.508;12.252;2023-12-20T04:27:57;101401.13;;;10.97;51.34
38786;BME280;24535;45.508;12.252;2023-12-20T04:30:22;101397.53;;;10.98;51.28
38786;BME280;24535;45.508;12.252;2023-12-20T04:32:48;101394.06;;;10.97;51.31
38786;BME280;24535;45.508;12.252;2023-12-20T04:35:13;101394.06;;;10.97;51.23
38786;BME280;24535;45.508;12.252;2023-12-20T04:37:38;101382.66;;;10.97;50.99
38786;BME280;24535;45.508;12.252;2023-12-20T04:40:04;101385.28;;;10.97;50.74
38786;BME280;24535;45.508;12.252;2023-12-20T04:42:30;101389.72;;;10.96;50.88
38786;BME280;24535;45.508;12.252;2023-12-20T04:44:56;101395.84;;;10.97;50.87
38786;BME280;24535;45.508;12.252;2023-12-20T04:47:21;101396.88;;;10.94;51.02
38786;BME280;24535;45.508;12.252;2023-12-20T04:49:47;101384.63;;;10.93;50.80
38786;BME280;24535;45.508;12.252;2023-12-20T04:52:13;101395.78;;;10.98;50.74
38786;BME280;24535;45.508;12.252;2023-12-20T04:54:38;101391.25;;;11.00;50.55
38786;BME280;24535;45.508;12.252;2023-12-20T04:57:04;101373.91;;;10.96;51.02
38786;BME280;24535;45.508;12.252;2023-12-20T04:59:29;101372.38;;;10.92;51.00
38786;BME280;24535;45.508;12.252;2023-12-20T05:01:54;101375.88;;;10.93;50.87
38786;BME280;24535;45.508;12.252;2023-12-20T05:04:20;101362.00;;;10.89;51.29
38786;BME280;24535;45.508;12.252;2023-12-20T05:06:45;101374.19;;;10.92;50.76
38786;BME280;24535;45.508;12.252;2023-12-20T05:09:11;101378.59;;;10.91;50.83
38786;BME280;24535;45.508;12.252;2023-12-20T05:11:36;101383.78;;;10.93;50.93
38786;BME280;24535;45.508;12.252;2023-12-20T05:14:02;101382.00;;;10.93;50.84
38786;BME280;24535;45.508;12.252;2023-12-20T05:16:27;101378.50;;;10.93;51.09
38786;BME280;24535;45.508;12.252;2023-12-20T05:18:52;101370.69;;;10.91;51.10
38786;BME280;24535;45.508;12.252;2023-12-20T05:21:18;101374.94;;;10.94;51.09
38786;BME280;24535;45.508;12.252;2023-12-20T05:23:43;101364.66;;;10.89;50.99
38786;BME280;24535;45.508;12.252;2023-12-20T05:26:09;101372.56;;;10.89;51.20
38786;BME280;24535;45.508;12.252;2023-12-20T05:28:34;101386.59;;;10.89;50.68
38786;BME280;24535;45.508;12.252;2023-12-20T05:31:00;101389.16;;;10.91;50.88
38786;BME280;24535;45.508;12.252;2023-12-20T05:33:25;101386.34;;;10.94;51.15
38786;BME280;24535;45.508;12.252;2023-12-20T05:35:51;101384.63;;;10.93;50.74
38786;BME280;24535;45.508;12.252;2023-12-20T05:38:16;101382.94;;;10.92;51.13
38786;BME280;24535;45.508;12.252;2023-12-20T05:40:42;101384.81;;;10.90;50.76
38786;BME280;24535;45.508;12.252;2023-12-20T05:43:07;101387.47;;;10.90;51.34
38786;BME280;24535;45.508;12.252;2023-12-20T05:45:33;101370.88;;;10.88;50.79
38786;BME280;24535;45.508;12.252;2023-12-20T05:47:58;101370.03;;;10.87;50.78
38786;BME280;24535;45.508;12.252;2023-12-20T05:50:24;101367.38;;;10.87;51.19
38786;BME280;24535;45.508;12.252;2023-12-20T05:52:49;101363.06;;;10.86;51.29
38786;BME280;24535;45.508;12.252;2023-12-20T05:55:15;101363.91;;;10.87;50.77
38786;BME280;24535;45.508;12.252;2023-12-20T05:57:41;101362.13;;;10.87;51.00
38786;BME280;24535;45.508;12.252;2023-12-20T06:00:09;101357.84;;;10.85;50.81
38786;BME280;24535;45.508;12.252;2023-12-20T06:02:34;101362.22;;;10.86;51.33
38786;BME280;24535;45.508;12.252;2023-12-20T06:05:02;101349.78;;;10.88;51.29
38786;BME280;24535;45.508;12.252;2023-12-20T06:07:29;101352.41;;;10.88;51.45
38786;BME280;24535;45.508;12.252;2023-12-20T06:09:54;101356.75;;;10.89;50.99
38786;BME280;24535;45.508;12.252;2023-12-20T06:12:20;101351.47;;;10.89;51.01
38786;BME280;24535;45.508;12.252;2023-12-20T06:14:45;101354.03;;;10.91;51.22
38786;BME280;24535;45.508;12.252;2023-12-20T06:17:11;101348.78;;;10.91;51.11
38786;BME280;24535;45.508;12.252;2023-12-20T06:19:36;101352.25;;;10.91;51.65
38786;BME280;24535;45.508;12.252;2023-12-20T06:22:02;101344.34;;;10.91;51.06
38786;BME280;24535;45.508;12.252;2023-12-20T06:24:27;101345.28;;;10.90;51.27
38786;BME280;24535;45.508;12.252;2023-12-20T06:26:54;101344.34;;;10.91;51.00
38786;BME280;24535;45.508;12.252;2023-12-20T06:29:20;101345.19;;;10.92;51.08
38786;BME280;24535;45.508;12.252;2023-12-20T06:31:45;101350.34;;;10.93;51.24
38786;BME280;24535;45.508;12.252;2023-12-20T06:34:11;101353.19;;;10.90;51.48
38786;BME280;24535;45.508;12.252;2023-12-20T06:36:36;101358.47;;;10.90;51.06
38786;BME280;24535;45.508;12.252;2023-12-20T06:39:02;101354.09;;;10.89;51.02
38786;BME280;24535;45.508;12.252;2023-12-20T06:41:27;101347.91;;;10.90;51.25
38786;BME280;24535;45.508;12.252;2023-12-20T06:43:53;101332.28;;;10.87;51.25
38786;BME280;24535;45.508;12.252;2023-12-20T06:46:18;101335.66;;;10.89;51.28
38786;BME280;24535;45.508;12.252;2023-12-20T06:48:44;101333.88;;;10.89;50.97
38786;BME280;24535;45.508;12.252;2023-12-20T06:51:15;101324.28;;;10.88;51.40
38786;BME280;24535;45.508;12.252;2023-12-20T06:53:41;101332.09;;;10.90;51.31
38786;BME280;24535;45.508;12.252;2023-12-20T06:56:06;101325.97;;;10.89;51.50
38786;BME280;24535;45.508;12.252;2023-12-20T06:58:32;101315.41;;;10.89;51.25
38786;BME280;24535;45.508;12.252;2023-12-20T07:01:01;101326.06;;;10.88;51.29
38786;BME280;24535;45.508;12.252;2023-12-20T07:03:28;101325.13;;;10.89;51.39
38786;BME280;24535;45.508;12.252;2023-12-20T07:05:56;101334.75;;;10.90;51.22
38786;BME280;24535;45.508;12.252;2023-12-20T07:08:28;101343.41;;;10.92;51.56
38786;BME280;24535;45.508;12.252;2023-12-20T07:10:53;101335.47;;;10.92;51.14
38786;BME280;24535;45.508;12.252;2023-12-20T07:13:34;101338.03;;;10.94;51.54
38786;BME280;24535;45.508;12.252;2023-12-20T07:16:00;101339.06;;;10.91;51.37
38786;BME280;24535;45.508;12.252;2023-12-20T07:18:25;101339.81;;;10.93;51.58
38786;BME280;24535;45.508;12.252;2023-12-20T07:20:51;101331.00;;;10.94;51.23
38786;BME280;24535;45.508;12.252;2023-12-20T07:23:16;101339.81;;;10.93;51.75
38786;BME280;24535;45.508;12.252;2023-12-20T07:25:42;101338.91;;;10.94;51.40
38786;BME280;24535;45.508;12.252;2023-12-20T07:28:07;101339.75;;;10.95;51.66
38786;BME280;24535;45.508;12.252;2023-12-20T07:30:33;101340.75;;;10.92;51.69
38786;BME280;24535;45.508;12.252;2023-12-20T07:32:58;101340.59;;;10.95;51.54
38786;BME280;24535;45.508;12.252;2023-12-20T07:35:30;101346.59;;;10.97;51.45
38786;BME280;24535;45.508;12.252;2023-12-20T07:37:55;101352.81;;;10.96;51.20
38786;BME280;24535;45.508;12.252;2023-12-20T07:40:21;101341.31;;;10.97;51.50
38786;BME280;24535;45.508;12.252;2023-12-20T07:42:46;101336.91;;;10.98;51.43
38786;BME280;24535;45.508;12.252;2023-12-20T07:45:12;101341.16;;;11.00;51.61
38786;BME280;24535;45.508;12.252;2023-12-20T07:47:37;101335.78;;;11.02;51.57
38786;BME280;24535;45.508;12.252;2023-12-20T07:50:03;101338.41;;;11.02;51.48
38786;BME280;24535;45.508;12.252;2023-12-20T07:52:29;101346.31;;;11.02;51.61
38786;BME280;24535;45.508;12.252;2023-12-20T07:54:55;101353.50;;;11.00;51.63
38786;BME280;24535;45.508;12.252;2023-12-20T07:57:21;101367.34;;;11.03;51.46
38786;BME280;24535;45.508;12.252;2023-12-20T07:59:46;101380.53;;;11.03;51.58
38786;BME280;24535;45.508;12.252;2023-12-20T08:02:12;101390.91;;;11.06;51.44
38786;BME280;24535;45.508;12.252;2023-12-20T08:04:37;101386.47;;;11.07;51.95
38786;BME280;24535;45.508;12.252;2023-12-20T08:07:03;101386.47;;;11.07;51.53
38786;BME280;24535;45.508;12.252;2023-12-20T08:09:32;101381.28;;;11.05;51.72
38786;BME280;24535;45.508;12.252;2023-12-20T08:11:59;101392.59;;;11.07;51.19
38786;BME280;24535;45.508;12.252;2023-12-20T08:14:25;101390.03;;;11.06;51.59
38786;BME280;24535;45.508;12.252;2023-12-20T08:16:57;101403.03;;;11.09;51.85
38786;BME280;24535;45.508;12.252;2023-12-20T08:19:22;101382.88;;;11.08;51.78
38786;BME280;24535;45.508;12.252;2023-12-20T08:21:48;101392.31;;;11.12;51.83
38786;BME280;24535;45.508;12.252;2023-12-20T08:24:13;101389.84;;;11.09;51.90
38786;BME280;24535;45.508;12.252;2023-12-20T08:26:39;101389.69;;;11.12;51.77
38786;BME280;24535;45.508;12.252;2023-12-20T08:29:04;101400.22;;;11.12;51.36
38786;BME280;24535;45.508;12.252;2023-12-20T08:31:29;101389.69;;;11.12;52.09
38786;BME280;24535;45.508;12.252;2023-12-20T08:34:02;101387.81;;;11.14;51.91
38786;BME280;24535;45.508;12.252;2023-12-20T08:36:28;101390.53;;;11.12;51.74
38786;BME280;24535;45.508;12.252;2023-12-20T08:38:53;101387.88;;;11.12;51.79
38786;BME280;24535;45.508;12.252;2023-12-20T08:41:26;101385.25;;;11.12;52.33
38786;BME280;24535;45.508;12.252;2023-12-20T08:43:51;101386.78;;;11.17;51.79
38786;BME280;24535;45.508;12.252;2023-12-20T08:46:17;101392.22;;;11.13;51.86
38786;BME280;24535;45.508;12.252;2023-12-20T08:48:49;101403.63;;;11.14;52.03
38786;BME280;24535;45.508;12.252;2023-12-20T08:51:14;101402.75;;;11.13;51.82
38786;BME280;24535;45.508;12.252;2023-12-20T08:53:40;101394.84;;;11.13;51.55
38786;BME280;24535;45.508;12.252;2023-12-20T08:59:30;101389.25;;;11.20;51.91
38786;BME280;24535;45.508;12.252;2023-12-20T09:01:55;101378.19;;;11.13;51.75
38786;BME280;24535;45.508;12.252;2023-12-20T09:04:28;101376.22;;;11.17;52.36
38786;BME280;24535;45.508;12.252;2023-12-20T09:06:54;101374.25;;;11.20;51.93
38786;BME280;24535;45.508;12.252;2023-12-20T09:09:20;101376.22;;;11.17;51.95
38786;BME280;24535;45.508;12.252;2023-12-20T09:11:45;101365.84;;;11.13;51.96
38786;BME280;24535;45.508;12.252;2023-12-20T09:14:19;101360.41;;;11.17;52.05
38786;BME280;24535;45.508;12.252;2023-12-20T09:17:14;101359.44;;;11.18;52.21
38786;BME280;24535;45.508;12.252;2023-12-20T09:19:44;101363.81;;;11.19;52.29
38786;BME280;24535;45.508;12.252;2023-12-20T09:22:11;101362.75;;;11.21;52.26
38786;BME280;24535;45.508;12.252;2023-12-20T09:24:56;101353.25;;;11.19;52.33
38786;BME280;24535;45.508;12.252;2023-12-20T09:27:22;101371.44;;;11.23;52.67
38786;BME280;24535;45.508;12.252;2023-12-20T09:29:47;101361.75;;;11.24;52.15
38786;BME280;24535;45.508;12.252;2023-12-20T09:32:13;101367.88;;;11.24;52.26
38786;BME280;24535;45.508;12.252;2023-12-20T09:34:41;101370.22;;;11.29;52.43
38786;BME280;24535;45.508;12.252;2023-12-20T09:37:07;101364.09;;;11.28;52.33
38786;BME280;24535;45.508;12.252;2023-12-20T09:39:33;101360.63;;;11.28;52.49
38786;BME280;24535;45.508;12.252;2023-12-20T10:17:29;101304.22;;;11.30;52.78
38786;BME280;24535;45.508;12.252;2023-12-20T10:20:04;101311.91;;;11.33;52.56
38786;BME280;24535;45.508;12.252;2023-12-20T10:22:40;101312.97;;;11.31;52.59
38786;BME280;24535;45.508;12.252;2023-12-20T10:25:09;101312.00;;;11.32;52.71
38786;BME280;24535;45.508;12.252;2023-12-20T11:23:05;101259.81;;;11.51;53.35
38786;BME280;24535;45.508;12.252;2023-12-20T11:25:55;101256.34;;;11.51;53.80
38786;BME280;24535;45.508;12.252;2023-12-20T11:28:29;101247.66;;;11.49;53.15
38786;BME280;24535;45.508;12.252;2023-12-20T11:31:00;101252.00;;;11.50;53.34
38786;BME280;24535;45.508;12.252;2023-12-20T11:33:29;101251.91;;;11.51;54.06
38786;BME280;24535;45.508;12.252;2023-12-20T11:36:01;101252.84;;;11.50;53.56
38786;BME280;24535;45.508;12.252;2023-12-20T11:38:37;101247.56;;;11.50;53.68
38786;BME280;24535;45.508;12.252;2023-12-20T11:41:05;101244.06;;;11.50;53.59
38786;BME280;24535;45.508;12.252;2023-12-20T11:43:40;101244.00;;;11.51;53.90
38786;BME280;24535;45.508;12.252;2023-12-20T11:46:06;101248.13;;;11.55;53.20
38786;BME280;24535;45.508;12.252;2023-12-20T11:48:39;101244.66;;;11.55;54.06
38786;BME280;24535;45.508;12.252;2023-12-20T11:51:12;101245.50;;;11.55;53.93
38786;BME280;24535;45.508;12.252;2023-12-20T11:53:41;101243.69;;;11.56;53.54
38786;BME280;24535;45.508;12.252;2023-12-20T12:04:10;101232.09;;;11.58;54.25
38786;BME280;24535;45.508;12.252;2023-12-20T12:06:49;101239.63;;;11.64;53.93
38786;BME280;24535;45.508;12.252;2023-12-20T12:09:17;101243.97;;;11.66;53.80
38786;BME280;24535;45.508;12.252;2023-12-20T12:11:51;101232.66;;;11.63;53.85
38786;BME280;24535;45.508;12.252;2023-12-20T12:18:03;101231.53;;;11.68;54.24
38786;BME280;24535;45.508;12.252;2023-12-20T12:20:36;101221.91;;;11.67;53.87
38786;BME280;24535;45.508;12.252;2023-12-20T12:23:05;101226.13;;;11.69;54.33
38786;BME280;24535;45.508;12.252;2023-12-20T12:25:35;101229.63;;;11.70;53.82
38786;BME280;24535;45.508;12.252;2023-12-20T12:28:02;101224.34;;;11.70;54.06
38786;BME280;24535;45.508;12.252;2023-12-20T12:30:58;101208.63;;;11.68;54.85
38786;BME280;24535;45.508;12.252;2023-12-20T12:33:45;101202.19;;;11.72;54.49
38786;BME280;24535;45.508;12.252;2023-12-20T12:36:17;101195.13;;;11.73;54.35
38786;BME280;24535;45.508;12.252;2023-12-20T12:38:45;101180.31;;;11.70;54.44
38786;BME280;24535;45.508;12.252;2023-12-20T12:41:13;101187.22;;;11.73;54.15
38786;BME280;24535;45.508;12.252;2023-12-20T12:43:38;101171.69;;;11.68;54.19
38786;BME280;24535;45.508;12.252;2023-12-20T12:46:13;101175.88;;;11.71;54.70
38786;BME280;24535;45.508;12.252;2023-12-20T12:48:47;101169.75;;;11.70;54.08
38786;BME280;24535;45.508;12.252;2023-12-20T12:51:14;101174.13;;;11.71;54.60
38786;BME280;24535;45.508;12.252;2023-12-20T12:53:43;101169.75;;;11.70;54.46
38786;BME280;24535;45.508;12.252;2023-12-20T12:56:08;101172.22;;;11.73;54.64
38786;BME280;24535;45.508;12.252;2023-12-20T12:58:34;101166.09;;;11.73;54.11
38786;BME280;24535;45.508;12.252;2023-12-20T13:00:59;101165.97;;;11.74;54.14
38786;BME280;24535;45.508;12.252;2023-12-20T13:03:25;101161.53;;;11.75;54.57
38786;BME280;24535;45.508;12.252;2023-12-20T13:05:50;101152.91;;;11.73;53.93
38786;BME280;24535;45.508;12.252;2023-12-20T13:08:16;101151.00;;;11.75;54.21
38786;BME280;24535;45.508;12.252;2023-12-20T13:10:41;101154.41;;;11.77;54.88
38786;BME280;24535;45.508;12.252;2023-12-20T13:13:07;101154.59;;;11.74;54.88
38786;BME280;24535;45.508;12.252;2023-12-20T13:15:32;101142.34;;;11.73;55.14
38786;BME280;24535;45.508;12.252;2023-12-20T13:17:58;101159.66;;;11.77;54.14
38786;BME280;24535;45.508;12.252;2023-12-20T13:20:23;101159.84;;;11.74;54.83
38786;BME280;24535;45.508;12.252;2023-12-20T13:22:49;101159.78;;;11.75;54.72
38786;BME280;24535;45.508;12.252;2023-12-20T13:27:49;101174.56;;;11.78;54.66
38786;BME280;24535;45.508;12.252;2023-12-20T13:30:18;101180.59;;;11.80;54.79
38786;BME280;24535;45.508;12.252;2023-12-20T13:32:47;101168.13;;;11.82;54.77
38786;BME280;24535;45.508;12.252;2023-12-20T13:35:12;101166.28;;;11.84;54.12
38786;BME280;24535;45.508;12.252;2023-12-20T13:37:38;101154.94;;;11.82;54.24
38786;BME280;24535;45.508;12.252;2023-12-20T13:40:04;101155.78;;;11.82;54.85
38786;BME280;24535;45.508;12.252;2023-12-20T13:42:37;101151.44;;;11.81;54.97
38786;BME280;24535;45.508;12.252;2023-12-20T13:45:09;101160.16;;;11.83;54.57
38786;BME280;24535;45.508;12.252;2023-12-20T13:47:35;101157.28;;;11.86;54.57
38786;BME280;24535;45.508;12.252;2023-12-20T13:50:00;101164.19;;;11.89;54.61
38786;BME280;24535;45.508;12.252;2023-12-20T13:52:26;101155.53;;;11.87;54.25
38786;BME280;24535;45.508;12.252;2023-12-20T13:54:52;101147.50;;;11.88;54.93
38786;BME280;24535;45.508;12.252;2023-12-20T13:57:20;101144.00;;;11.88;54.34
38786;BME280;24535;45.508;12.252;2023-12-20T14:00:08;101144.84;;;11.88;54.91
38786;BME280;24535;45.508;12.252;2023-12-20T14:02:45;101147.50;;;11.88;54.74
38786;BME280;24535;45.508;12.252;2023-12-20T14:05:11;101154.56;;;11.88;55.09
38786;BME280;24535;45.508;12.252;2023-12-20T14:07:37;101149.19;;;11.90;54.62
38786;BME280;24535;45.508;12.252;2023-12-20T14:10:05;101152.78;;;11.88;54.61
38786;BME280;24535;45.508;12.252;2023-12-20T14:12:31;101156.38;;;11.87;54.62
38786;BME280;24535;45.508;12.252;2023-12-20T14:15:00;101165.03;;;11.90;54.75
38786;BME280;24535;45.508;12.252;2023-12-20T14:17:26;101175.38;;;11.93;54.72
38786;BME280;24535;45.508;12.252;2023-12-20T14:19:51;101175.59;;;11.90;55.05
38786;BME280;24535;45.508;12.252;2023-12-20T14:22:17;101180.66;;;11.93;55.08
38786;BME280;24535;45.508;12.252;2023-12-20T14:24:42;101179.06;;;11.90;54.91
38786;BME280;24535;45.508;12.252;2023-12-20T14:27:08;101179.81;;;11.92;54.93